Time;durP1;ratioP1;P1;durP2;ratioP2;P2;SDS_P1;SDS_P2;PMS_P1;PMS_P2;Temp;Humidity;BMP_temperature;BMP_pressure;BME280_temperature;BME280_humidity;BME280_pressure;Samples;Min_cycle;Max_cycle;Signal;HPM_P1;HPM_P2
2021/01/21 00:00:32;;;;;;;4.38;1.92;;;;;;;-10.96;88.83;99983.31;5008893;28;20052;-62
2021/01/21 00:03:18;;;;;;;9.70;2.58;;;;;;;-10.98;89.40;99984.13;5006688;28;20139;-62
2021/01/21 00:06:03;;;;;;;4.55;1.77;;;;;;;-10.96;89.58;99974.91;5008741;28;20136;-62
2021/01/21 00:08:49;;;;;;;6.03;1.73;;;;;;;-10.95;90.29;99982.50;5008038;28;20065;-61
2021/01/21 00:11:33;;;;;;;4.13;2.30;;;;;;;-10.95;90.39;99981.66;5007955;28;20405;-62
2021/01/21 00:14:18;;;;;;;5.68;2.47;;;;;;;-10.98;89.38;99987.50;5007708;28;20048;-62
2021/01/21 00:17:03;;;;;;;8.30;2.10;;;;;;;-10.94;89.92;99988.38;5007772;28;20436;-62
2021/01/21 00:19:49;;;;;;;5.75;2.17;;;;;;;-10.99;88.67;99993.38;5007467;28;20111;-63
2021/01/21 00:22:34;;;;;;;6.28;3.03;;;;;;;-10.95;89.88;99989.22;5007690;28;20057;-62
2021/01/21 00:25:19;;;;;;;5.88;1.85;;;;;;;-10.92;90.53;99992.63;5008361;28;20142;-62
2021/01/21 00:28:05;;;;;;;4.18;2.05;;;;;;;-10.90;91.05;99990.97;5008360;28;20056;-63
2021/01/21 00:30:50;;;;;;;9.40;2.47;;;;;;;-10.90;90.27;99992.63;5006316;28;20103;-62
2021/01/21 00:33:35;;;;;;;7.90;2.97;;;;;;;-10.92;89.01;99989.22;5007169;28;20513;-62
2021/01/21 00:36:20;;;;;;;3.42;2.03;;;;;;;-10.94;89.61;99983.34;5006221;28;20135;-62
2021/01/21 00:39:06;;;;;;;4.60;2.50;;;;;;;-10.90;90.83;99977.50;5020532;28;20538;-62
2021/01/21 00:41:51;;;;;;;7.40;1.88;;;;;;;-10.93;89.56;99988.38;5026812;28;20130;-63
2021/01/21 00:44:36;;;;;;;4.32;1.95;;;;;;;-10.91;89.29;99989.25;5028200;28;20056;-62
2021/01/21 00:47:21;;;;;;;4.75;2.47;;;;;;;-10.94;90.29;99984.19;5028958;28;20103;-62
2021/01/21 00:50:07;;;;;;;5.28;1.88;;;;;;;-11.00;88.92;99976.53;5008177;28;20417;-62
2021/01/21 00:52:52;;;;;;;4.13;1.60;;;;;;;-10.96;88.71;99972.38;5010169;28;20069;-62
2021/01/21 00:55:37;;;;;;;4.47;1.83;;;;;;;-11.05;89.49;99968.09;5010157;28;20188;-62
2021/01/21 00:58:23;;;;;;;6.18;2.00;;;;;;;-11.03;88.38;99968.94;5008296;28;20079;-61
2021/01/21 01:01:09;;;;;;;5.35;2.40;;;;;;;-11.02;89.39;99968.09;5007841;28;20061;-62
2021/01/21 01:03:55;;;;;;;9.88;3.42;;;;;;;-11.06;89.68;99976.50;5008066;28;20057;-62
2021/01/21 01:06:40;;;;;;;3.92;1.92;;;;;;;-11.04;90.37;99974.81;5009166;28;20057;-62
2021/01/21 01:09:25;;;;;;;7.82;4.05;;;;;;;-11.05;89.86;99965.56;5007524;28;20124;-62
2021/01/21 01:12:10;;;;;;;5.20;2.10;;;;;;;-10.99;90.53;99958.03;5009682;28;20057;-63
2021/01/21 01:14:58;;;;;;;5.55;1.77;;;;;;;-11.01;89.63;99953.78;5008518;28;20061;-62
2021/01/21 01:17:44;;;;;;;3.60;1.80;;;;;;;-11.04;89.70;99952.09;5008674;28;20076;-62
2021/01/21 01:20:30;;;;;;;4.90;2.13;;;;;;;-11.03;89.98;99943.69;5007002;28;20400;-62
2021/01/21 01:23:16;;;;;;;5.43;2.00;;;;;;;-11.07;89.89;99944.47;5006888;28;20057;-62
2021/01/21 01:26:01;;;;;;;9.57;2.40;;;;;;;-11.06;89.84;99940.28;5007358;28;20501;-61
2021/01/21 01:28:48;;;;;;;5.15;2.08;;;;;;;-11.06;89.42;99930.19;5011328;28;20053;-62
2021/01/21 01:31:32;;;;;;;6.07;2.90;;;;;;;-11.02;89.24;99929.38;5012286;28;20519;-62
2021/01/21 01:34:19;;;;;;;8.93;3.33;;;;;;;-10.97;90.08;99925.22;5007378;28;20076;-62
2021/01/21 01:37:39;;;;;;;4.45;1.98;;;;;;;-11.00;89.75;99918.47;5009359;28;20141;-62
2021/01/21 01:40:30;;;;;;;5.35;2.15;;;;;;;-11.07;89.22;99921.75;5030242;28;20080;-62
2021/01/21 01:43:16;;;;;;;7.53;2.80;;;;;;;-11.06;89.32;99933.56;5030875;28;20196;-62
2021/01/21 01:46:06;;;;;;;7.57;3.00;;;;;;;-11.04;89.13;99936.09;5029687;28;20052;-62
2021/01/21 01:48:56;;;;;;;8.70;2.13;;;;;;;-11.06;88.96;99932.69;5031180;28;20057;-62
2021/01/21 01:51:46;;;;;;;5.97;2.17;;;;;;;-11.05;90.01;99930.22;5029895;28;20067;-62
2021/01/21 01:54:33;;;;;;;7.75;2.83;;;;;;;-11.11;87.81;99937.69;5030225;28;20191;-62
2021/01/21 01:57:39;;;;;;;5.97;2.35;;;;;;;-11.14;89.69;99932.66;5029689;28;20114;-62
2021/01/21 02:00:30;;;;;;;6.00;2.50;;;;;;;-11.13;88.77;99934.31;5030407;28;20149;-62
2021/01/21 02:03:22;;;;;;;6.53;2.30;;;;;;;-11.20;88.92;99935.06;5031747;28;20420;-62
2021/01/21 02:06:26;;;;;;;4.68;2.35;;;;;;;-11.17;89.30;99942.69;5029313;28;20052;-62
2021/01/21 02:09:14;;;;;;;17.23;3.20;;;;;;;-11.14;90.45;99943.59;5029197;28;20056;-63
2021/01/21 02:12:11;;;;;;;8.55;2.63;;;;;;;-11.15;89.08;99943.56;5031587;28;20404;-62
2021/01/21 02:15:05;;;;;;;3.75;2.05;;;;;;;-11.11;89.69;99938.56;5030283;28;20052;-62
2021/01/21 02:18:36;;;;;;;4.60;2.20;;;;;;;-11.16;90.40;99940.19;5030443;28;20060;-64
2021/01/21 02:21:37;;;;;;;4.78;1.95;;;;;;;-11.18;88.58;99939.31;5029749;28;20056;-62
2021/01/21 02:24:59;;;;;;;6.40;2.17;;;;;;;-11.23;88.01;99938.44;5030343;28;20051;-62
2021/01/21 02:28:06;;;;;;;7.65;2.20;;;;;;;-11.26;88.37;99933.34;5023405;28;20076;-62
2021/01/21 02:30:55;;;;;;;7.47;3.15;;;;;;;-11.32;89.50;99933.28;5008879;28;20187;-62
2021/01/21 02:34:06;;;;;;;4.68;1.85;;;;;;;-11.26;90.26;99940.91;5010221;28;20135;-62
2021/01/21 02:36:55;;;;;;;4.72;2.00;;;;;;;-11.22;89.57;99934.22;5010034;28;20061;-62
2021/01/21 02:40:05;;;;;;;3.88;2.25;;;;;;;-11.22;89.34;99934.22;5010664;28;20401;-62
2021/01/21 02:42:58;;;;;;;5.07;1.65;;;;;;;-11.16;90.37;99941.84;5008441;28;20077;-62
2021/01/21 02:45:44;;;;;;;5.88;2.35;;;;;;;-11.19;88.19;99937.66;5011406;28;20045;-63
2021/01/21 02:48:31;;;;;;;8.95;2.50;;;;;;;-11.21;89.33;99939.28;5010684;28;20139;-62
2021/01/21 02:51:37;;;;;;;5.00;1.88;;;;;;;-11.19;89.66;99934.28;5010106;28;20057;-61
2021/01/21 02:54:42;;;;;;;7.05;2.55;;;;;;;-11.32;87.66;99933.28;5011109;28;20135;-61
2021/01/21 02:57:42;;;;;;;4.87;2.27;;;;;;;-11.30;89.33;99934.13;5021027;28;20060;-61
2021/01/21 03:00:28;;;;;;;7.38;2.55;;;;;;;-11.30;90.24;99940.88;5012344;28;20829;-62
2021/01/21 03:03:16;;;;;;;5.40;2.40;;;;;;;-11.27;89.40;99934.19;5011171;28;20060;-62
2021/01/21 03:06:05;;;;;;;8.65;2.70;;;;;;;-11.27;89.50;99939.22;5011922;28;20053;-61
2021/01/21 03:08:54;;;;;;;5.13;2.13;;;;;;;-11.27;89.55;99949.31;5011350;28;20081;-62
2021/01/21 03:11:42;;;;;;;7.85;2.58;;;;;;;-11.28;89.84;99949.31;5011464;28;20065;-62
2021/01/21 03:14:27;;;;;;;6.13;2.38;;;;;;;-11.30;89.87;99948.44;5011656;28;20139;-62
2021/01/21 03:17:13;;;;;;;5.18;2.15;;;;;;;-11.37;89.18;99948.38;5012179;28;20560;-62
2021/01/21 03:20:04;;;;;;;3.63;1.80;;;;;;;-11.38;88.59;99954.25;5009957;28;20052;-61
2021/01/21 03:22:49;;;;;;;8.00;2.40;;;;;;;-11.35;89.39;99958.47;5010414;28;20053;-62
2021/01/21 03:25:34;;;;;;;18.23;5.28;;;;;;;-11.41;88.38;99950.84;5011430;28;20052;-63
2021/01/21 03:28:23;;;;;;;7.70;2.22;;;;;;;-11.39;88.29;99944.16;5010776;28;20464;-62
2021/01/21 03:31:09;;;;;;;7.50;2.10;;;;;;;-11.39;88.82;99946.69;5011778;28;20061;-62
2021/01/21 03:33:56;;;;;;;7.07;2.40;;;;;;;-11.35;89.09;99945.84;5010018;28;20065;-63
2021/01/21 03:36:42;;;;;;;7.15;2.28;;;;;;;-11.38;89.61;99945.84;5023446;28;20052;-62
2021/01/21 03:39:27;;;;;;;5.00;2.03;;;;;;;-11.41;90.12;99943.28;5025570;28;20064;-61
2021/01/21 03:42:35;;;;;;;6.05;2.42;;;;;;;-11.44;89.41;99944.09;5030699;28;20057;-62
2021/01/21 03:45:42;;;;;;;6.07;2.05;;;;;;;-11.42;88.66;99955.03;5030130;28;20125;-63
2021/01/21 03:48:30;;;;;;;5.45;2.38;;;;;;;-11.40;90.08;99945.81;5030395;28;20056;-62
2021/01/21 03:51:51;;;;;;;5.75;2.65;;;;;;;-11.39;89.43;99950.03;5027508;28;20056;-62
2021/01/21 03:54:58;;;;;;;5.22;1.70;;;;;;;-11.42;88.33;99944.94;5030364;28;20186;-62
2021/01/21 03:57:44;;;;;;;7.45;3.10;;;;;;;-11.41;89.42;99949.16;5029686;28;20056;-62
2021/01/21 04:00:46;;;;;;;6.50;1.80;;;;;;;-11.42;89.61;99934.03;5029398;28;20159;-63
2021/01/21 04:03:32;;;;;;;4.22;2.00;;;;;;;-11.42;89.98;99931.50;5029775;28;20060;-62
2021/01/21 04:06:22;;;;;;;7.00;1.92;;;;;;;-11.37;88.63;99933.25;5029579;28;20048;-62
2021/01/21 04:09:14;;;;;;;6.55;3.30;;;;;;;-11.36;89.29;99936.59;5009358;28;20508;-62
2021/01/21 04:12:06;;;;;;;3.92;1.83;;;;;;;-11.39;88.36;99932.38;5009450;28;20192;-63
2021/01/21 04:14:52;;;;;;;7.15;2.03;;;;;;;-11.37;88.35;99934.91;5009278;28;20135;-62
2021/01/21 04:17:39;;;;;;;5.00;2.08;;;;;;;-11.38;89.43;99934.06;5022016;28;20180;-62
2021/01/21 04:20:25;;;;;;;4.50;1.92;;;;;;;-11.42;88.38;99934.88;5009994;28;20073;-63
2021/01/21 04:23:13;;;;;;;4.60;2.00;;;;;;;-11.41;89.56;99928.97;5009974;28;20048;-63
2021/01/21 04:25:59;;;;;;;8.50;3.50;;;;;;;-11.41;89.97;99928.13;5006051;28;20053;-63
2021/01/21 04:28:47;;;;;;;5.65;2.05;;;;;;;-11.48;87.84;99918.81;5009463;28;20053;-63
2021/01/21 04:31:32;;;;;;;6.15;2.28;;;;;;;-11.45;89.82;99927.25;5011074;28;20049;-63
2021/01/21 04:34:27;;;;;;;6.63;1.73;;;;;;;-11.50;88.50;99930.56;5026163;28;20065;-62
2021/01/21 04:37:14;;;;;;;6.95;1.90;;;;;;;-11.47;88.65;99931.44;5026743;28;20195;-61
2021/01/21 04:40:15;;;;;;;6.88;2.38;;;;;;;-11.53;88.48;99913.72;5027431;28;20110;-62
2021/01/21 04:43:03;;;;;;;6.85;1.90;;;;;;;-11.48;89.91;99919.66;5028776;28;20076;-62
2021/01/21 04:45:48;;;;;;;6.43;2.53;;;;;;;-11.44;89.85;99928.09;5043190;28;20053;-64
2021/01/21 04:48:34;;;;;;;5.22;2.10;;;;;;;-11.48;88.70;99922.19;5029324;28;20095;-62
2021/01/21 04:51:30;;;;;;;8.35;1.80;;;;;;;-11.43;88.57;99930.66;5008213;28;20057;-62
2021/01/21 04:54:38;;;;;;;5.35;2.42;;;;;;;-11.47;89.11;99923.88;5008961;28;20084;-62
2021/01/21 04:58:07;;;;;;;8.90;2.17;;;;;;;-11.47;89.61;99923.88;5009135;28;20128;-62
2021/01/21 05:00:54;;;;;;;4.05;1.73;;;;;;;-11.48;89.04;99928.91;5008842;28;20184;-63
2021/01/21 05:03:39;;;;;;;3.35;2.20;;;;;;;-11.54;89.99;99917.06;5012140;28;20061;-62
2021/01/21 05:06:50;;;;;;;9.02;2.45;;;;;;;-11.51;89.19;99928.88;5013205;28;20056;-62
2021/01/21 05:09:39;;;;;;;4.75;2.20;;;;;;;-11.45;89.24;99932.28;5013359;28;20111;-62
2021/01/21 05:12:29;;;;;;;6.15;2.10;;;;;;;-11.49;88.18;99930.56;5011886;28;20605;-63
2021/01/21 05:15:37;;;;;;;4.50;2.00;;;;;;;-11.48;89.18;99934.81;5013341;28;20072;-62
2021/01/21 05:18:40;;;;;;;5.43;2.47;;;;;;;-11.46;89.65;99928.09;5013098;28;20552;-62
2021/01/21 05:22:00;;;;;;;6.40;1.88;;;;;;;-11.47;89.24;99928.06;5001293;28;20635;-62
2021/01/21 05:25:18;;;;;;;5.28;2.53;;;;;;;-11.51;87.81;99922.13;4995354;28;20509;-63
2021/01/21 05:28:32;;;;;;;4.65;1.90;;;;;;;-11.51;88.87;99919.63;5008208;28;20053;-63
2021/01/21 05:31:41;;;;;;;3.83;1.88;;;;;;;-11.51;88.10;99929.72;5000339;28;20053;-63
2021/01/21 05:34:32;;;;;;;5.82;2.60;;;;;;;-11.49;89.18;99919.63;5009978;28;20087;-62
2021/01/21 05:37:38;;;;;;;5.68;1.83;;;;;;;-11.47;88.92;99926.41;5012034;28;20139;-62
2021/01/21 05:40:46;;;;;;;6.82;1.98;;;;;;;-11.52;88.97;99920.47;5026688;28;20053;-63
2021/01/21 05:43:57;;;;;;;11.53;2.27;;;;;;;-11.47;87.42;99925.56;5013113;28;20061;-63
2021/01/21 05:46:51;;;;;;;5.32;2.17;;;;;;;-11.52;89.05;99928.03;5012246;28;20100;-64
2021/01/21 05:49:38;;;;;;;6.78;2.50;;;;;;;-11.56;88.36;99926.28;5011087;28;20188;-63
2021/01/21 05:52:28;;;;;;;7.63;2.00;;;;;;;-11.56;88.54;99930.50;5012363;28;20064;-62
2021/01/21 05:55:15;;;;;;;8.30;2.17;;;;;;;-11.52;89.76;99929.69;5011965;28;20065;-63
2021/01/21 05:58:10;;;;;;;4.82;2.05;;;;;;;-11.50;89.55;99940.66;4996101;28;20061;-63
2021/01/21 06:00:57;;;;;;;3.42;1.88;;;;;;;-11.57;88.65;99938.91;5011995;28;20076;-63
2021/01/21 06:03:51;;;;;;;4.05;2.05;;;;;;;-11.59;87.28;99938.00;5011891;28;20060;-62
2021/01/21 06:06:40;;;;;;;5.28;2.40;;;;;;;-11.64;88.64;99937.94;5013786;28;20053;-62
2021/01/21 06:09:27;;;;;;;6.95;2.50;;;;;;;-11.56;89.26;99943.09;5011805;28;20049;-62
2021/01/21 06:12:13;;;;;;;6.82;1.98;;;;;;;-11.61;89.27;99945.56;5012759;28;20052;-62
2021/01/21 06:15:01;;;;;;;4.32;1.95;;;;;;;-11.58;88.69;99948.13;5011268;28;20294;-62
2021/01/21 06:17:50;;;;;;;7.82;2.15;;;;;;;-11.55;88.27;99957.41;5012199;28;20111;-62
2021/01/21 06:20:52;;;;;;;7.75;1.85;;;;;;;-11.56;89.48;99960.75;5010978;28;20195;-63
2021/01/21 06:24:09;;;;;;;3.03;1.45;;;;;;;-11.57;88.72;99964.97;5007128;28;20065;-62
2021/01/21 06:27:03;;;;;;;4.07;1.83;;;;;;;-11.61;88.66;99956.50;5012052;28;20072;-62
2021/01/21 06:29:51;;;;;;;4.05;2.05;;;;;;;-11.64;88.01;99953.09;5012987;28;20127;-62
2021/01/21 06:32:48;;;;;;;6.53;1.90;;;;;;;-11.65;89.24;99958.97;5025451;28;20192;-62
2021/01/21 06:35:35;;;;;;;5.30;2.28;;;;;;;-11.64;88.13;99961.50;5012763;28;20069;-62
2021/01/21 06:38:24;;;;;;;7.85;2.72;;;;;;;-11.66;88.23;99957.28;5018816;28;20103;-62
2021/01/21 06:41:19;;;;;;;7.03;2.40;;;;;;;-11.64;89.28;99958.97;5032702;28;20048;-62
2021/01/21 06:44:04;;;;;;;12.30;2.70;;;;;;;-11.66;87.81;99954.75;5032058;28;20052;-62
2021/01/21 06:46:53;;;;;;;7.43;2.53;;;;;;;-11.80;86.90;99957.09;5032237;28;20052;-63
2021/01/21 06:49:38;;;;;;;7.22;2.20;;;;;;;-11.75;87.90;99959.69;5032486;28;20176;-62
2021/01/21 06:52:25;;;;;;;2.88;1.63;;;;;;;-11.78;88.06;99952.06;5032423;28;20052;-62
2021/01/21 06:55:12;;;;;;;5.53;1.90;;;;;;;-11.80;88.03;99954.56;5030719;28;20134;-62
2021/01/21 06:57:57;;;;;;;9.85;2.42;;;;;;;-11.77;88.78;99956.28;5031763;28;20048;-63
2021/01/21 07:00:44;;;;;;;4.70;1.90;;;;;;;-11.86;87.05;99956.22;5032376;28;20092;-63
2021/01/21 07:03:30;;;;;;;5.22;1.95;;;;;;;-11.91;87.84;99963.72;5010985;28;20128;-63
2021/01/21 07:06:15;;;;;;;6.80;1.95;;;;;;;-11.91;88.27;99964.56;5011938;28;20147;-62
2021/01/21 07:09:08;;;;;;;3.95;1.95;;;;;;;-11.90;88.59;99970.44;5011577;28;20048;-62
2021/01/21 07:11:55;;;;;;;7.53;2.15;;;;;;;-11.95;87.95;99962.81;5011169;28;20053;-62
2021/01/21 07:14:41;;;;;;;6.80;2.10;;;;;;;-11.97;87.72;99966.13;5011726;28;20135;-62
2021/01/21 07:17:29;;;;;;;5.38;2.20;;;;;;;-12.00;87.87;99968.63;5011837;28;20092;-62
2021/01/21 07:20:14;;;;;;;4.53;2.00;;;;;;;-12.02;87.78;99971.09;5012183;28;20052;-64
2021/01/21 07:23:07;;;;;;;5.63;1.98;;;;;;;-12.04;87.82;99976.97;5011652;28;20108;-62
2021/01/21 07:26:14;;;;;;;7.47;2.60;;;;;;;-12.09;87.33;99976.88;5010162;28;20115;-62
2021/01/21 07:29:19;;;;;;;7.15;2.17;;;;;;;-12.09;88.80;99974.38;5012351;28;20057;-62
2021/01/21 07:32:05;;;;;;;5.32;1.70;;;;;;;-12.02;88.77;99976.13;5010913;28;20050;-63
2021/01/21 07:34:51;;;;;;;3.92;2.30;;;;;;;-12.05;87.97;99978.63;5010105;28;20567;-62
2021/01/21 07:37:45;;;;;;;7.85;1.98;;;;;;;-12.08;88.22;99981.09;5008800;28;20132;-62
2021/01/21 07:40:47;;;;;;;6.57;2.20;;;;;;;-12.04;87.55;99987.03;5023764;28;20464;-62
2021/01/21 07:43:55;;;;;;;7.13;2.20;;;;;;;-12.03;87.42;99992.09;5009941;28;20264;-62
2021/01/21 07:46:41;;;;;;;5.32;1.63;;;;;;;-12.09;87.27;99993.69;5009527;28;20056;-62
2021/01/21 07:49:27;;;;;;;6.28;2.30;;;;;;;-12.07;87.71;99997.91;5009351;28;20064;-61
2021/01/21 07:52:13;;;;;;;5.43;2.00;;;;;;;-12.07;87.77;99997.06;5009481;28;20053;-62
2021/01/21 07:54:58;;;;;;;4.10;2.15;;;;;;;-12.08;87.19;99993.69;5009735;28;20053;-61
2021/01/21 07:57:45;;;;;;;2.60;1.90;;;;;;;-12.13;87.85;99991.09;5009877;28;20057;-62
2021/01/21 08:00:33;;;;;;;4.43;2.00;;;;;;;-12.10;87.29;100000.41;5009622;28;20060;-61
2021/01/21 08:03:30;;;;;;;6.70;2.97;;;;;;;-12.13;86.44;99995.31;5008985;28;20539;-62
2021/01/21 08:06:21;;;;;;;7.80;1.75;;;;;;;-12.09;87.55;99993.69;5015550;28;20053;-62
2021/01/21 08:09:20;;;;;;;7.05;1.98;;;;;;;-12.06;87.11;99988.66;5028283;28;20114;-62
2021/01/21 08:12:11;;;;;;;3.75;1.90;;;;;;;-12.09;86.46;99988.66;5018623;28;20061;-62
2021/01/21 08:15:05;;;;;;;5.47;3.60;;;;;;;-12.14;85.78;99986.06;5005893;28;20398;-62
2021/01/21 08:17:52;;;;;;;8.27;1.83;;;;;;;-12.09;86.63;99976.03;5007011;28;20104;-64
2021/01/21 08:20:37;;;;;;;5.18;1.80;;;;;;;-12.05;87.20;99990.38;5009278;28;20079;-62
2021/01/21 08:23:23;;;;;;;8.27;3.08;;;;;;;-12.05;85.95;99991.22;5009363;28;20396;-61
2021/01/21 08:26:08;;;;;;;8.25;2.38;;;;;;;-12.07;86.55;99997.06;5009191;28;20061;-62
2021/01/21 08:28:54;;;;;;;7.15;2.80;;;;;;;-12.13;86.11;99991.09;5009080;28;20534;-62
2021/01/21 08:31:42;;;;;;;11.95;3.55;;;;;;;-12.06;87.08;99991.19;5008985;28;20089;-62
2021/01/21 08:34:27;;;;;;;5.68;2.20;;;;;;;-12.07;86.00;99992.03;5008855;28;20052;-63
2021/01/21 08:37:13;;;;;;;6.63;3.00;;;;;;;-12.13;85.48;99983.56;5008716;28;20065;-63
2021/01/21 08:39:58;;;;;;;6.10;2.55;;;;;;;-12.14;85.99;99978.50;5028382;28;20115;-63
2021/01/21 08:42:46;;;;;;;9.05;2.70;;;;;;;-12.05;86.40;99980.31;5028810;28;20059;-62
2021/01/21 08:45:31;;;;;;;6.13;2.70;;;;;;;-12.05;85.71;99978.63;5007670;28;20127;-62
2021/01/21 08:48:37;;;;;;;14.88;2.58;;;;;;;-12.11;85.97;99978.53;5008864;28;20103;-62
2021/01/21 08:51:37;;;;;;;5.72;2.75;;;;;;;-12.11;85.78;99970.97;5009187;28;20076;-62
2021/01/21 08:54:25;;;;;;;7.45;2.50;;;;;;;-12.14;86.13;99971.78;5008688;28;20095;-61
2021/01/21 08:57:14;;;;;;;7.95;3.55;;;;;;;-12.03;86.78;99964.38;5008784;28;20547;-62
2021/01/21 09:00:12;;;;;;;9.68;3.20;;;;;;;-11.99;85.21;99967.78;5009377;28;20139;-61
2021/01/21 09:02:58;;;;;;;6.70;2.72;;;;;;;-11.97;85.98;99972.00;5008997;28;20057;-61
2021/01/21 09:05:56;;;;;;;8.75;3.08;;;;;;;-12.01;86.48;99972.81;5009068;28;20052;-62
2021/01/21 09:08:59;;;;;;;6.00;2.85;;;;;;;-11.87;85.99;99970.47;5007959;28;20068;-61
2021/01/21 09:11:44;;;;;;;7.35;3.35;;;;;;;-11.91;85.40;99973.78;5008639;28;20049;-61
2021/01/21 09:14:29;;;;;;;7.18;2.80;;;;;;;-11.88;85.97;99981.38;5008513;28;20087;-61
2021/01/21 09:17:15;;;;;;;12.65;3.40;;;;;;;-11.75;85.32;99974.81;5007926;28;20073;-62
2021/01/21 09:20:17;;;;;;;11.18;3.03;;;;;;;-11.87;83.60;99972.97;5007711;28;20076;-61
2021/01/21 09:23:12;;;;;;;12.52;2.92;;;;;;;-11.82;85.14;99962.97;5008387;28;20710;-61
2021/01/21 09:26:09;;;;;;;10.20;3.13;;;;;;;-11.90;84.59;99962.88;5008797;28;20520;-62
2021/01/21 09:28:59;;;;;;;10.05;2.83;;;;;;;-11.84;85.41;99959.59;5009561;28;20139;-61
2021/01/21 09:31:44;;;;;;;6.38;3.03;;;;;;;-11.86;85.10;99967.13;5008264;28;20512;-62
2021/01/21 09:34:29;;;;;;;6.07;2.83;;;;;;;-11.81;84.74;99962.97;5008252;28;20544;-62
2021/01/21 09:37:14;;;;;;;13.25;3.95;;;;;;;-11.74;85.09;99959.69;5008121;28;20076;-61
2021/01/21 09:40:00;;;;;;;9.40;3.45;;;;;;;-11.75;84.52;99955.47;5027036;28;20102;-61
2021/01/21 09:42:46;;;;;;;10.20;3.20;;;;;;;-11.66;85.54;99954.75;5028004;28;20172;-62
2021/01/21 09:45:32;;;;;;;7.22;3.10;;;;;;;-11.53;84.21;99954.09;5027976;28;20520;-61
2021/01/21 09:48:19;;;;;;;6.97;3.75;;;;;;;-11.51;84.98;99959.13;5010324;28;20507;-61
2021/01/21 09:51:04;;;;;;;11.23;3.45;;;;;;;-11.52;84.33;99960.81;5010269;28;20184;-63
2021/01/21 09:53:49;;;;;;;18.73;8.20;;;;;;;-11.59;82.95;99963.22;5012340;28;20187;-64
2021/01/21 09:56:34;;;;;;;60.08;17.13;;;;;;;-11.64;84.80;99961.50;5012508;28;20386;-62
2021/01/21 09:59:21;;;;;;;18.02;7.43;;;;;;;-11.66;85.33;99969.88;5010967;28;20057;-62
2021/01/21 10:02:07;;;;;;;504.88;185.75;;;;;;;-11.64;85.06;99953.94;5011601;28;20049;-62
2021/01/21 10:04:53;;;;;;;97.50;41.10;;;;;;;-11.61;84.11;99959.03;5011149;28;20151;-62
2021/01/21 10:07:38;;;;;;;56.80;28.30;;;;;;;-11.61;83.97;99965.75;5010185;28;20183;-62
2021/01/21 10:10:23;;;;;;;37.70;27.83;;;;;;;-11.55;85.32;99970.84;5011078;28;20520;-62
2021/01/21 10:13:08;;;;;;;13.52;5.03;;;;;;;-11.53;84.34;99966.69;5011368;28;20618;-62
2021/01/21 10:15:53;;;;;;;8.45;4.13;;;;;;;-11.58;84.34;99962.41;5011140;28;20061;-62
2021/01/21 10:18:38;;;;;;;14.90;3.03;;;;;;;-11.50;84.43;99968.38;5011823;28;20057;-62
2021/01/21 10:21:24;;;;;;;9.05;2.50;;;;;;;-11.63;84.87;99964.84;5011461;28;20053;-62
2021/01/21 10:24:10;;;;;;;321.38;167.48;;;;;;;-11.56;85.06;99954.03;5012221;28;20579;-62
2021/01/21 10:26:55;;;;;;;126.60;65.35;;;;;;;-11.64;84.29;99950.56;5012053;28;20136;-62
2021/01/21 10:29:40;;;;;;;174.85;115.95;;;;;;;-11.61;83.76;99959.03;5012318;28;20115;-63
2021/01/21 10:32:25;;;;;;;12.15;6.22;;;;;;;-11.72;84.42;99953.00;5011064;28;20048;-62
2021/01/21 10:35:12;;;;;;;13.90;3.50;;;;;;;-11.61;83.86;99956.50;5011110;28;20048;-62
2021/01/21 10:37:57;;;;;;;13.52;3.30;;;;;;;-11.61;84.11;99960.69;5013611;28;20692;-62
2021/01/21 10:40:43;;;;;;;6.22;2.35;;;;;;;-11.62;83.89;99959.84;5030728;28;20056;-62
2021/01/21 10:43:28;;;;;;;5.38;2.22;;;;;;;-11.61;84.35;99955.66;5031503;28;20130;-62
2021/01/21 10:46:13;;;;;;;9.52;2.97;;;;;;;-11.57;83.41;99949.81;5030850;28;20053;-62
2021/01/21 10:48:58;;;;;;;9.50;3.42;;;;;;;-11.58;83.99;99943.09;5031204;28;20192;-62
2021/01/21 10:51:47;;;;;;;7.22;2.53;;;;;;;-11.63;84.44;99948.09;5030506;28;20615;-62
2021/01/21 10:54:34;;;;;;;11.65;4.18;;;;;;;-11.68;83.82;99939.63;5031303;28;20095;-62
2021/01/21 10:57:19;;;;;;;5.53;2.63;;;;;;;-11.70;84.52;99935.38;5030462;28;20057;-62
2021/01/21 11:00:05;;;;;;;5.63;2.10;;;;;;;-11.66;83.72;99934.56;5029312;28;20114;-62
2021/01/21 11:02:51;;;;;;;5.95;2.75;;;;;;;-11.79;83.82;99918.44;5030315;28;20095;-63
2021/01/21 11:05:36;;;;;;;9.38;2.40;;;;;;;-11.75;84.84;99929.41;5031131;28;20160;-62
2021/01/21 11:08:22;;;;;;;8.52;3.55;;;;;;;-11.71;84.99;99929.47;5030146;28;20138;-63
2021/01/21 11:11:07;;;;;;;8.88;3.35;;;;;;;-11.89;84.79;99935.16;5029823;28;20052;-63
2021/01/21 11:13:53;;;;;;;8.93;2.53;;;;;;;-11.98;84.46;99930.00;5030601;28;20076;-62
2021/01/21 11:16:38;;;;;;;7.40;2.70;;;;;;;-12.09;84.32;99931.53;5029863;28;20056;-62
2021/01/21 11:19:23;;;;;;;4.63;2.20;;;;;;;-12.11;84.86;99918.03;5030266;28;20156;-63
2021/01/21 11:22:10;;;;;;;5.47;2.28;;;;;;;-12.13;84.64;99923.06;5030337;28;20044;-62
2021/01/21 11:24:55;;;;;;;5.15;2.42;;;;;;;-12.13;84.84;99922.22;5030526;28;20061;-63
2021/01/21 11:28:00;;;;;;;6.18;2.80;;;;;;;-12.19;84.30;99914.59;5029737;28;20083;-62
2021/01/21 11:30:48;;;;;;;6.93;2.22;;;;;;;-12.19;84.61;99914.59;5029347;28;20156;-63
2021/01/21 11:33:34;;;;;;;4.35;2.00;;;;;;;-12.11;85.35;99902.06;5030109;28;20052;-61
2021/01/21 11:36:27;;;;;;;5.95;2.40;;;;;;;-12.09;84.19;99916.41;5029416;28;20048;-62
2021/01/21 11:39:12;;;;;;;6.85;2.78;;;;;;;-12.18;84.45;99902.00;5016695;28;20048;-62
2021/01/21 11:41:57;;;;;;;4.47;2.33;;;;;;;-12.17;85.04;99892.75;5009232;28;20061;-62
2021/01/21 11:44:43;;;;;;;5.47;2.88;;;;;;;-12.22;84.15;99899.41;5009653;28;20500;-63
2021/01/21 11:47:28;;;;;;;7.05;2.22;;;;;;;-12.22;84.96;99894.38;5010408;28;20057;-63
2021/01/21 11:50:17;;;;;;;9.68;2.50;;;;;;;-12.17;84.07;99890.25;5010349;28;20061;-62
2021/01/21 11:53:02;;;;;;;8.75;3.13;;;;;;;-12.23;83.84;99893.53;5010364;28;20064;-62
2021/01/21 11:55:47;;;;;;;6.63;2.20;;;;;;;-12.29;84.73;99895.97;5010320;28;20068;-61
2021/01/21 11:58:32;;;;;;;7.82;2.60;;;;;;;-12.40;84.67;99887.41;5009863;28;20065;-62
2021/01/21 12:01:17;;;;;;;3.97;2.20;;;;;;;-12.45;84.86;99894.88;5009280;28;20061;-62
2021/01/21 12:04:03;;;;;;;7.75;2.72;;;;;;;-12.53;84.64;99891.44;5008769;28;20151;-62
2021/01/21 12:06:49;;;;;;;8.30;3.10;;;;;;;-12.53;84.33;99888.91;5008574;28;20068;-62
2021/01/21 12:09:35;;;;;;;6.22;3.63;;;;;;;-12.61;83.55;99887.94;5009657;28;20127;-62
2021/01/21 12:12:20;;;;;;;12.18;4.22;;;;;;;-12.76;83.90;99883.53;5009622;28;20478;-62
2021/01/21 12:15:05;;;;;;;7.70;3.72;;;;;;;-12.77;84.24;99875.94;5009878;28;20061;-63
2021/01/21 12:17:50;;;;;;;7.32;3.42;;;;;;;-12.84;84.20;99882.53;5008754;28;20152;-62
2021/01/21 12:20:36;;;;;;;6.10;2.80;;;;;;;-12.87;85.29;99867.38;5010360;28;20061;-62
2021/01/21 12:23:23;;;;;;;4.55;2.58;;;;;;;-12.96;83.58;99873.13;5008676;28;20060;-62
2021/01/21 12:26:09;;;;;;;7.90;2.80;;;;;;;-12.94;84.17;99884.06;5009365;28;20127;-62
2021/01/21 12:28:54;;;;;;;9.30;3.28;;;;;;;-13.01;83.81;99878.91;5008967;28;20057;-61
2021/01/21 12:31:39;;;;;;;7.80;3.00;;;;;;;-13.00;84.75;99888.16;5008662;28;20449;-62
2021/01/21 12:34:27;;;;;;;5.18;2.65;;;;;;;-13.16;84.19;99884.50;5008765;28;20119;-62
2021/01/21 12:37:12;;;;;;;7.60;2.90;;;;;;;-13.11;84.03;99884.59;5009096;28;20045;-61
2021/01/21 12:39:57;;;;;;;5.68;3.00;;;;;;;-13.14;84.72;99887.94;5026130;28;20530;-61
2021/01/21 12:42:43;;;;;;;6.90;2.95;;;;;;;-13.17;84.49;99897.94;5008713;28;20049;-61
2021/01/21 12:45:28;;;;;;;5.97;2.80;;;;;;;-13.21;83.78;99896.16;5008937;28;20068;-62
2021/01/21 12:48:13;;;;;;;9.27;3.45;;;;;;;-13.20;84.94;99897.84;5008374;28;20408;-62
2021/01/21 12:50:59;;;;;;;3.70;2.42;;;;;;;-13.27;84.55;99908.69;5008665;28;20128;-62
2021/01/21 12:53:44;;;;;;;5.28;2.90;;;;;;;-13.34;84.35;99910.22;5008359;28;20045;-62
2021/01/21 12:56:29;;;;;;;5.20;2.97;;;;;;;-13.36;84.46;99906.00;5007404;28;20056;-63
2021/01/21 12:59:14;;;;;;;7.82;3.10;;;;;;;-13.47;84.42;99891.56;5008597;28;20065;-63
2021/01/21 13:02:00;;;;;;;8.32;2.97;;;;;;;-13.48;84.75;99889.88;5007192;28;20052;-64
2021/01/21 13:04:45;;;;;;;6.78;3.10;;;;;;;-13.57;84.34;99892.22;5009553;28;20180;-62
2021/01/21 13:07:31;;;;;;;5.32;2.65;;;;;;;-13.59;84.39;99886.28;5008278;28;20405;-63
2021/01/21 13:10:16;;;;;;;7.40;2.83;;;;;;;-13.59;85.10;99887.97;5008722;28;20184;-63